sensor_id;sensor_type;location;lat;lon;timestamp;pressure;altitude;pressure_sealevel;temperature;humidity
57894;BME280;43710;47.460;19.034;2023-06-14T03:58:32;100299.50;;;16.42;77.14
57894;BME280;43710;47.460;19.034;2023-06-14T04:01:35;100299.50;;;16.42;77.14
57894;BME280;43710;47.460;19.034;2023-06-14T04:04:38;100305.75;;;16.00;78.38
57894;BME280;43710;47.460;19.034;2023-06-14T04:07:40;100309.22;;;16.09;78.85
57894;BME280;43710;47.460;19.034;2023-06-14T04:10:47;100310.66;;;16.24;76.40
57894;BME280;43710;47.460;19.034;2023-06-14T04:13:49;100319.72;;;16.36;75.07
57894;BME280;43710;47.460;19.034;2023-06-14T04:16:51;100317.16;;;16.40;77.02
57894;BME280;43710;47.460;19.034;2023-06-14T04:19:54;100316.84;;;16.41;75.32
57894;BME280;43710;47.460;19.034;2023-06-14T04:22:57;100319.84;;;16.57;75.34
57894;BME280;43710;47.460;19.034;2023-06-14T04:25:59;100323.19;;;16.45;75.90
57894;BME280;43710;47.460;19.034;2023-06-14T04:29:04;100332.44;;;16.53;75.42
57894;BME280;43710;47.460;19.034;2023-06-14T04:32:08;100325.09;;;16.45;76.69
57894;BME280;43710;47.460;19.034;2023-06-14T04:35:12;100333.38;;;16.49;74.56
57894;BME280;43710;47.460;19.034;2023-06-14T04:38:16;100324.13;;;16.58;74.74
57894;BME280;43710;47.460;19.034;2023-06-14T04:41:21;100319.97;;;16.61;73.64
57894;BME280;43710;47.460;19.034;2023-06-14T04:44:25;100327.31;;;16.69;74.48
57894;BME280;43710;47.460;19.034;2023-06-14T04:47:35;100329.69;;;16.79;76.31
57894;BME280;43710;47.460;19.034;2023-06-14T04:50:42;100332.84;;;16.81;74.63
57894;BME280;43710;47.460;19.034;2023-06-14T04:53:45;100331.22;;;16.98;72.81
57894;BME280;43710;47.460;19.034;2023-06-14T04:56:47;100343.81;;;16.94;78.96
57894;BME280;43710;47.460;19.034;2023-06-14T04:59:50;100343.47;;;17.04;79.31
57894;BME280;43710;47.460;19.034;2023-06-14T05:02:56;100342.97;;;17.02;81.81
57894;BME280;43710;47.460;19.034;2023-06-14T05:06:01;100342.78;;;17.16;75.16
57894;BME280;43710;47.460;19.034;2023-06-14T05:09:03;100342.44;;;17.26;84.63
57894;BME280;43710;47.460;19.034;2023-06-14T05:12:06;100339.88;;;17.29;72.24
57894;BME280;43710;47.460;19.034;2023-06-14T05:15:11;100338.09;;;17.33;72.21
57894;BME280;43710;47.460;19.034;2023-06-14T05:18:14;100337.84;;;17.47;77.57
57894;BME280;43710;47.460;19.034;2023-06-14T05:21:17;100335.47;;;17.75;75.35
57894;BME280;43710;47.460;19.034;2023-06-14T05:24:20;100338.56;;;17.95;72.35
57894;BME280;43710;47.460;19.034;2023-06-14T05:27:22;100342.22;;;17.90;71.56
57894;BME280;43710;47.460;19.034;2023-06-14T05:30:27;100346.31;;;18.17;72.27
57894;BME280;43710;47.460;19.034;2023-06-14T05:33:31;100347.97;;;18.30;69.99
57894;BME280;43710;47.460;19.034;2023-06-14T05:36:33;100346.63;;;18.58;68.88
57894;BME280;43710;47.460;19.034;2023-06-14T05:39:36;100349.47;;;18.61;67.42
57894;BME280;43710;47.460;19.034;2023-06-14T05:42:38;100332.81;;;18.63;66.24
57894;BME280;43710;47.460;19.034;2023-06-14T05:45:40;100343.41;;;18.43;71.56
57894;BME280;43710;47.460;19.034;2023-06-14T05:48:43;100346.09;;;18.43;67.87
57894;BME280;43710;47.460;19.034;2023-06-14T05:51:45;100346.22;;;18.47;69.70
57894;BME280;43710;47.460;19.034;2023-06-14T05:54:47;100349.31;;;18.78;67.99
57894;BME280;43710;47.460;19.034;2023-06-14T05:57:50;100357.81;;;18.89;73.27
57894;BME280;43710;47.460;19.034;2023-06-14T06:00:52;100352.63;;;18.84;65.56
57894;BME280;43710;47.460;19.034;2023-06-14T06:03:55;100354.78;;;18.91;65.73
57894;BME280;43710;47.460;19.034;2023-06-14T06:06:58;100353.75;;;18.95;66.72
57894;BME280;43710;47.460;19.034;2023-06-14T06:10:03;100344.84;;;19.19;64.69
57894;BME280;43710;47.460;19.034;2023-06-14T06:13:07;100343.91;;;19.03;64.84
57894;BME280;43710;47.460;19.034;2023-06-14T06:16:13;100347.78;;;19.14;64.82
57894;BME280;43710;47.460;19.034;2023-06-14T06:19:17;100350.62;;;19.42;69.07
57894;BME280;43710;47.460;19.034;2023-06-14T06:22:21;100347.31;;;19.37;64.55
57894;BME280;43710;47.460;19.034;2023-06-14T06:25:26;100343.59;;;19.29;65.09
57894;BME280;43710;47.460;19.034;2023-06-14T06:28:31;100354.81;;;19.40;65.01
57894;BME280;43710;47.460;19.034;2023-06-14T06:31:36;100353.78;;;19.57;66.90
57894;BME280;43710;47.460;19.034;2023-06-14T06:34:41;100349.50;;;19.68;64.07
57894;BME280;43710;47.460;19.034;2023-06-14T06:37:48;100345.72;;;19.85;62.17
57894;BME280;43710;47.460;19.034;2023-06-14T06:40:58;100350.72;;;19.83;65.96
57894;BME280;43710;47.460;19.034;2023-06-14T06:44:03;100347.16;;;20.07;63.74
57894;BME280;43710;47.460;19.034;2023-06-14T06:47:09;100347.69;;;20.12;61.96
57894;BME280;43710;47.460;19.034;2023-06-14T06:50:14;100342.91;;;20.22;63.94
57894;BME280;43710;47.460;19.034;2023-06-14T06:53:22;100339.69;;;20.04;61.13
57894;BME280;43710;47.460;19.034;2023-06-14T06:56:43;100353.78;;;19.93;68.50
57894;BME280;43710;47.460;19.034;2023-06-14T06:59:48;100348.75;;;20.08;63.33
57894;BME280;43710;47.460;19.034;2023-06-14T07:02:54;100352.53;;;19.79;63.49
57894;BME280;43710;47.460;19.034;2023-06-14T07:06:02;100354.47;;;19.66;63.26
57894;BME280;43710;47.460;19.034;2023-06-14T07:09:07;100352.34;;;19.71;64.93
57894;BME280;43710;47.460;19.034;2023-06-14T07:12:16;100350.81;;;19.86;63.74
57894;BME280;43710;47.460;19.034;2023-06-14T07:15:23;100353.47;;;19.70;61.32
57894;BME280;43710;47.460;19.034;2023-06-14T07:18:30;100348.25;;;19.65;63.45
57894;BME280;43710;47.460;19.034;2023-06-14T07:21:34;100352.31;;;19.59;62.95
57894;BME280;43710;47.460;19.034;2023-06-14T07:24:41;100345.06;;;19.76;62.67
57894;BME280;43710;47.460;19.034;2023-06-14T07:27:52;100349.34;;;19.77;64.77
57894;BME280;43710;47.460;19.034;2023-06-14T07:30:58;100348.66;;;19.92;62.98
57894;BME280;43710;47.460;19.034;2023-06-14T07:34:06;100345.87;;;20.16;68.57
57894;BME280;43710;47.460;19.034;2023-06-14T07:37:11;100347.41;;;20.02;62.97
57894;BME280;43710;47.460;19.034;2023-06-14T07:40:19;100355.06;;;20.12;64.24
57894;BME280;43710;47.460;19.034;2023-06-14T07:43:28;100353.62;;;20.02;62.43
57894;BME280;43710;47.460;19.034;2023-06-14T07:46:33;100356.91;;;20.08;66.18
57894;BME280;43710;47.460;19.034;2023-06-14T07:49:39;100360.28;;;20.17;67.22
57894;BME280;43710;47.460;19.034;2023-06-14T07:52:45;100359.13;;;20.18;62.53
57894;BME280;43710;47.460;19.034;2023-06-14T07:55:51;100365.63;;;20.13;69.08
57894;BME280;43710;47.460;19.034;2023-06-14T07:58:57;100365.97;;;20.12;61.42
57894;BME280;43710;47.460;19.034;2023-06-14T08:02:07;100368.87;;;20.19;59.74
57894;BME280;43710;47.460;19.034;2023-06-14T08:05:18;100367.88;;;20.11;61.65
57894;BME280;43710;47.460;19.034;2023-06-14T08:08:22;100368.34;;;20.13;62.13
57894;BME280;43710;47.460;19.034;2023-06-14T08:11:28;100374.19;;;20.28;66.53
57894;BME280;43710;47.460;19.034;2023-06-14T08:14:33;100369.63;;;20.32;65.28
57894;BME280;43710;47.460;19.034;2023-06-14T08:17:38;100366.78;;;20.69;64.28
57894;BME280;43710;47.460;19.034;2023-06-14T08:20:42;100367.22;;;20.71;63.16
57894;BME280;43710;47.460;19.034;2023-06-14T08:23:46;100368.12;;;20.91;60.82
57894;BME280;43710;47.460;19.034;2023-06-14T08:26:51;100359.19;;;20.90;60.64
57894;BME280;43710;47.460;19.034;2023-06-14T08:29:56;100360.72;;;20.75;61.80
57894;BME280;43710;47.460;19.034;2023-06-14T08:33:00;100362.50;;;20.83;59.46
57894;BME280;43710;47.460;19.034;2023-06-14T08:36:19;100372.22;;;20.69;60.50
57894;BME280;43710;47.460;19.034;2023-06-14T08:39:23;100373.59;;;20.62;59.13
57894;BME280;43710;47.460;19.034;2023-06-14T08:42:28;100375.91;;;20.60;57.85
57894;BME280;43710;47.460;19.034;2023-06-14T08:45:34;100377.84;;;20.60;58.53
57894;BME280;43710;47.460;19.034;2023-06-14T08:48:39;100382.84;;;20.58;60.20
57894;BME280;43710;47.460;19.034;2023-06-14T08:51:43;100388.66;;;20.72;59.78
57894;BME280;43710;47.460;19.034;2023-06-14T08:54:48;100384.97;;;20.64;58.13
57894;BME280;43710;47.460;19.034;2023-06-14T08:57:54;100390.88;;;20.67;59.59
57894;BME280;43710;47.460;19.034;2023-06-14T09:01:02;100403.44;;;20.71;58.98
57894;BME280;43710;47.460;19.034;2023-06-14T09:04:05;100406.37;;;20.66;61.90
57894;BME280;43710;47.460;19.034;2023-06-14T09:07:08;100407.31;;;20.70;60.40
57894;BME280;43710;47.460;19.034;2023-06-14T09:10:13;100405.09;;;20.76;59.43
57894;BME280;43710;47.460;19.034;2023-06-14T09:13:16;100406.72;;;20.77;59.47
57894;BME280;43710;47.460;19.034;2023-06-14T09:16:19;100403.97;;;20.77;59.22
57894;BME280;43710;47.460;19.034;2023-06-14T09:19:23;100396.94;;;20.76;58.95
57894;BME280;43710;47.460;19.034;2023-06-14T09:22:29;100404.22;;;20.72;59.24
57894;BME280;43710;47.460;19.034;2023-06-14T09:25:32;100412.38;;;20.72;58.59
57894;BME280;43710;47.460;19.034;2023-06-14T09:28:45;100406.78;;;20.80;59.20
57894;BME280;43710;47.460;19.034;2023-06-14T09:31:48;100405.09;;;20.76;60.82
57894;BME280;43710;47.460;19.034;2023-06-14T09:34:51;100398.16;;;20.78;57.70
57894;BME280;43710;47.460;19.034;2023-06-14T09:37:55;100400.19;;;20.81;58.96
57894;BME280;43710;47.460;19.034;2023-06-14T09:40:58;100390.53;;;20.84;58.22
57894;BME280;43710;47.460;19.034;2023-06-14T09:44:05;100391.69;;;20.83;58.08
57894;BME280;43710;47.460;19.034;2023-06-14T09:47:12;100394.84;;;20.85;57.86
57894;BME280;43710;47.460;19.034;2023-06-14T09:50:16;100389.06;;;20.86;57.12
57894;BME280;43710;47.460;19.034;2023-06-14T09:53:21;100381.59;;;20.99;57.47
57894;BME280;43710;47.460;19.034;2023-06-14T09:56:30;100385.28;;;21.07;55.43
57894;BME280;43710;47.460;19.034;2023-06-14T09:59:32;100378.28;;;21.06;52.66
57894;BME280;43710;47.460;19.034;2023-06-14T10:02:36;100377.91;;;21.07;56.83
57894;BME280;43710;47.460;19.034;2023-06-14T10:05:43;100376.59;;;21.01;53.28
57894;BME280;43710;47.460;19.034;2023-06-14T10:08:48;100379.84;;;21.07;55.51
57894;BME280;43710;47.460;19.034;2023-06-14T10:11:51;100374.41;;;21.07;53.61
57894;BME280;43710;47.460;19.034;2023-06-14T10:14:55;100380.56;;;21.20;55.15
57894;BME280;43710;47.460;19.034;2023-06-14T10:21:32;100374.22;;;21.47;56.40
57894;BME280;43710;47.460;19.034;2023-06-14T10:24:43;100374.12;;;21.60;53.57
57894;BME280;43710;47.460;19.034;2023-06-14T10:27:45;100371.09;;;21.80;54.00
57894;BME280;43710;47.460;19.034;2023-06-14T10:31:09;100365.63;;;21.80;52.46
57894;BME280;43710;47.460;19.034;2023-06-14T10:34:20;100364.56;;;21.85;49.75
57894;BME280;43710;47.460;19.034;2023-06-14T10:37:25;100363.44;;;21.86;48.89
57894;BME280;43710;47.460;19.034;2023-06-14T10:40:31;100361.28;;;21.95;48.32
57894;BME280;43710;47.460;19.034;2023-06-14T10:43:33;100366.91;;;22.02;50.90
57894;BME280;43710;47.460;19.034;2023-06-14T10:46:36;100361.94;;;22.08;47.38
57894;BME280;43710;47.460;19.034;2023-06-14T10:49:40;100359.03;;;22.17;48.58
57894;BME280;43710;47.460;19.034;2023-06-14T10:52:44;100353.06;;;22.31;46.15
57894;BME280;43710;47.460;19.034;2023-06-14T10:55:48;100357.28;;;22.28;45.07
57894;BME280;43710;47.460;19.034;2023-06-14T10:58:52;100358.75;;;22.22;44.34
57894;BME280;43710;47.460;19.034;2023-06-14T11:05:28;100349.47;;;22.46;46.48
57894;BME280;43710;47.460;19.034;2023-06-14T11:12:24;100337.16;;;22.56;42.61
57894;BME280;43710;47.460;19.034;2023-06-14T11:15:32;100333.78;;;22.43;41.71
57894;BME280;43710;47.460;19.034;2023-06-14T11:18:36;100334.12;;;22.41;43.25
57894;BME280;43710;47.460;19.034;2023-06-14T11:21:40;100332.28;;;22.45;42.94
57894;BME280;43710;47.460;19.034;2023-06-14T11:24:43;100334.06;;;22.57;46.38
57894;BME280;43710;47.460;19.034;2023-06-14T11:27:46;100338.34;;;22.58;42.51
57894;BME280;43710;47.460;19.034;2023-06-14T11:30:49;100329.94;;;22.67;49.64
57894;BME280;43710;47.460;19.034;2023-06-14T11:34:01;100324.47;;;22.67;42.18
57894;BME280;43710;47.460;19.034;2023-06-14T11:37:05;100331.59;;;22.71;44.58
57894;BME280;43710;47.460;19.034;2023-06-14T11:40:09;100329.59;;;22.91;43.79
57894;BME280;43710;47.460;19.034;2023-06-14T11:43:13;100321.84;;;22.93;43.39
57894;BME280;43710;47.460;19.034;2023-06-14T11:46:16;100323.53;;;23.02;42.52
57894;BME280;43710;47.460;19.034;2023-06-14T11:49:20;100320.84;;;23.28;42.41
57894;BME280;43710;47.460;19.034;2023-06-14T11:52:22;100315.78;;;23.30;41.52
57894;BME280;43710;47.460;19.034;2023-06-14T11:55:25;100312.25;;;23.30;42.07
57894;BME280;43710;47.460;19.034;2023-06-14T11:58:29;100323.09;;;23.23;41.08
57894;BME280;43710;47.460;19.034;2023-06-14T12:01:31;100321.94;;;23.24;42.32
57894;BME280;43710;47.460;19.034;2023-06-14T12:04:34;100324.72;;;23.27;42.97
57894;BME280;43710;47.460;19.034;2023-06-14T12:07:37;100329.22;;;23.16;40.88
57894;BME280;43710;47.460;19.034;2023-06-14T12:10:42;100328.50;;;23.19;41.36
57894;BME280;43710;47.460;19.034;2023-06-14T12:13:49;100327.41;;;23.24;38.91
57894;BME280;43710;47.460;19.034;2023-06-14T12:16:51;100319.91;;;23.20;41.75
57894;BME280;43710;47.460;19.034;2023-06-14T12:19:54;100322.94;;;23.12;40.25
57894;BME280;43710;47.460;19.034;2023-06-14T12:22:59;100321.94;;;23.01;41.07
57894;BME280;43710;47.460;19.034;2023-06-14T12:26:03;100325.41;;;22.97;41.24
57894;BME280;43710;47.460;19.034;2023-06-14T12:29:07;100331.59;;;22.94;40.13
57894;BME280;43710;47.460;19.034;2023-06-14T12:32:10;100324.72;;;22.81;39.83
57894;BME280;43710;47.460;19.034;2023-06-14T12:35:15;100329.28;;;22.73;40.55
57894;BME280;43710;47.460;19.034;2023-06-14T12:38:18;100329.03;;;22.82;40.13
57894;BME280;43710;47.460;19.034;2023-06-14T12:41:21;100330.38;;;22.92;43.71
57894;BME280;43710;47.460;19.034;2023-06-14T12:44:24;100331.16;;;22.92;45.49
57894;BME280;43710;47.460;19.034;2023-06-14T12:47:27;100330.47;;;22.95;43.23
57894;BME280;43710;47.460;19.034;2023-06-14T12:50:30;100341.81;;;22.97;43.38
57894;BME280;43710;47.460;19.034;2023-06-14T12:53:33;100335.94;;;22.95;43.38
57894;BME280;43710;47.460;19.034;2023-06-14T12:56:35;100329.31;;;22.96;43.44
57894;BME280;43710;47.460;19.034;2023-06-14T12:59:38;100328.87;;;22.94;42.28
57894;BME280;43710;47.460;19.034;2023-06-14T13:02:40;100325.69;;;22.92;42.17
57894;BME280;43710;47.460;19.034;2023-06-14T13:05:43;100328.37;;;22.89;41.10
57894;BME280;43710;47.460;19.034;2023-06-14T13:08:45;100322.63;;;22.94;44.80
57894;BME280;43710;47.460;19.034;2023-06-14T13:11:47;100318.03;;;22.98;45.75
57894;BME280;43710;47.460;19.034;2023-06-14T13:14:49;100314.75;;;22.92;46.13
57894;BME280;43710;47.460;19.034;2023-06-14T13:17:53;100317.69;;;22.80;44.67
57894;BME280;43710;47.460;19.034;2023-06-14T13:20:55;100316.28;;;22.67;47.12
57894;BME280;43710;47.460;19.034;2023-06-14T13:23:58;100322.13;;;22.65;47.06
57894;BME280;43710;47.460;19.034;2023-06-14T13:27:01;100324.41;;;22.63;46.88
57894;BME280;43710;47.460;19.034;2023-06-14T13:30:06;100324.34;;;22.60;46.32
57894;BME280;43710;47.460;19.034;2023-06-14T13:33:09;100322.59;;;22.71;46.72
57894;BME280;43710;47.460;19.034;2023-06-14T13:36:13;100320.66;;;22.71;47.97
57894;BME280;43710;47.460;19.034;2023-06-14T13:39:17;100318.78;;;22.75;48.19
57894;BME280;43710;47.460;19.034;2023-06-14T13:42:21;100325.75;;;22.73;46.10
57894;BME280;43710;47.460;19.034;2023-06-14T13:45:24;100310.53;;;22.72;46.92
57894;BME280;43710;47.460;19.034;2023-06-14T13:48:27;100313.31;;;22.75;48.43
57894;BME280;43710;47.460;19.034;2023-06-14T13:51:29;100314.22;;;22.83;46.56
57894;BME280;43710;47.460;19.034;2023-06-14T13:54:32;100308.09;;;22.90;46.81
57894;BME280;43710;47.460;19.034;2023-06-14T13:57:35;100306.91;;;22.91;46.86
57894;BME280;43710;47.460;19.034;2023-06-14T14:00:37;100306.91;;;22.91;46.16
57894;BME280;43710;47.460;19.034;2023-06-14T14:03:42;100313.09;;;22.88;45.49
57894;BME280;43710;47.460;19.034;2023-06-14T14:06:44;100309.53;;;22.84;45.92
57894;BME280;43710;47.460;19.034;2023-06-14T14:09:50;100311.97;;;22.89;45.04
57894;BME280;43710;47.460;19.034;2023-06-14T14:12:53;100310.03;;;22.89;45.16
57894;BME280;43710;47.460;19.034;2023-06-14T14:15:57;100300.88;;;22.78;43.90
57894;BME280;43710;47.460;19.034;2023-06-14T14:18:59;100307.06;;;22.75;44.63
57894;BME280;43710;47.460;19.034;2023-06-14T14:22:02;100308.19;;;22.74;46.95
57894;BME280;43710;47.460;19.034;2023-06-14T14:25:06;100304.91;;;22.65;45.08
57894;BME280;43710;47.460;19.034;2023-06-14T14:28:09;100304.50;;;22.63;47.15
57894;BME280;43710;47.460;19.034;2023-06-14T14:31:13;100309.59;;;22.64;46.67
57894;BME280;43710;47.460;19.034;2023-06-14T14:34:16;100315.13;;;22.68;46.45
57894;BME280;43710;47.460;19.034;2023-06-14T14:37:18;100312.03;;;22.69;46.51
57894;BME280;43710;47.460;19.034;2023-06-14T14:40:21;100308.63;;;22.53;44.93
57894;BME280;43710;47.460;19.034;2023-06-14T14:43:23;100308.19;;;22.51;45.60
57894;BME280;43710;47.460;19.034;2023-06-14T14:46:34;100311.84;;;22.59;45.80
57894;BME280;43710;47.460;19.034;2023-06-14T14:49:36;100313.22;;;22.49;45.88
57894;BME280;43710;47.460;19.034;2023-06-14T14:52:39;100309.28;;;22.46;44.85
57894;BME280;43710;47.460;19.034;2023-06-14T14:55:41;100307.16;;;22.59;46.13
57894;BME280;43710;47.460;19.034;2023-06-14T14:58:44;100310.97;;;22.55;44.20
57894;BME280;43710;47.460;19.034;2023-06-14T15:01:46;100311.41;;;22.57;48.12
57894;BME280;43710;47.460;19.034;2023-06-14T15:04:49;100310.12;;;22.50;43.49
57894;BME280;43710;47.460;19.034;2023-06-14T15:07:51;100310.44;;;22.45;45.25
57894;BME280;43710;47.460;19.034;2023-06-14T15:10:54;100310.06;;;22.47;46.91
57894;BME280;43710;47.460;19.034;2023-06-14T15:13:56;100296.62;;;22.38;46.04
